createdAt,value
2022-12-16T00:00:02.575Z,20.6
2022-12-16T00:01:32.807Z,20.6
2022-12-16T00:03:03.003Z,20.4
2022-12-16T00:04:33.071Z,20.6
2022-12-16T00:06:03.238Z,20.3
2022-12-16T00:07:33.411Z,20.6
2022-12-16T00:09:03.580Z,20.2
2022-12-16T00:10:33.722Z,20.5
2022-12-16T00:12:03.912Z,20.4
2022-12-16T00:13:34.549Z,20.5
2022-12-16T00:15:04.215Z,16.1
2022-12-16T00:16:34.454Z,20.5
2022-12-16T00:18:04.557Z,20.4
2022-12-16T00:19:34.713Z,20.4
2022-12-16T00:21:04.868Z,20.3
2022-12-16T00:22:35.048Z,20.4
2022-12-16T00:24:05.215Z,20.6
2022-12-16T00:25:35.375Z,20.4
2022-12-16T00:27:05.536Z,20.4
2022-12-16T00:28:35.738Z,20.3
2022-12-16T00:30:05.889Z,19.3
2022-12-16T00:31:36.069Z,25
2022-12-16T00:33:06.241Z,20.3
2022-12-16T00:34:36.396Z,20.3
2022-12-16T00:36:06.551Z,20.3
2022-12-16T00:37:36.731Z,24.3
2022-12-16T00:39:06.882Z,20.8
2022-12-16T00:40:37.037Z,20.4
2022-12-16T00:42:07.194Z,20.3
2022-12-16T00:43:37.375Z,21.3
2022-12-16T00:45:07.678Z,19.9
2022-12-16T00:46:37.701Z,20.3
2022-12-16T00:48:07.885Z,20.3
2022-12-16T00:49:38.045Z,20.3
2022-12-16T00:51:08.205Z,20.4
2022-12-16T00:52:38.380Z,21.2
2022-12-16T00:54:08.533Z,20.4
2022-12-16T00:55:38.698Z,20.6
2022-12-16T00:57:08.852Z,20.5
2022-12-16T00:58:39.025Z,20.5
2022-12-16T01:00:09.179Z,20.5
2022-12-16T01:01:39.449Z,20.6
2022-12-16T01:03:09.664Z,20.6
2022-12-16T01:04:39.679Z,20.6
2022-12-16T01:06:09.829Z,20.6
2022-12-16T01:07:40.003Z,21
2022-12-16T01:09:10.166Z,20.4
2022-12-16T01:10:40.313Z,20.6
2022-12-16T01:12:10.472Z,20.2
2022-12-16T01:13:40.652Z,20.6
2022-12-16T01:15:10.811Z,21.1
2022-12-16T01:16:41.110Z,20.6
2022-12-16T01:18:11.142Z,20.6
2022-12-16T01:19:41.297Z,20.6
2022-12-16T01:21:11.451Z,20.3
2022-12-16T01:22:41.628Z,21.1
2022-12-16T01:24:11.782Z,20.5
2022-12-16T01:26:13.943Z,20.5
2022-12-16T01:27:44.136Z,21.5
2022-12-16T01:29:14.297Z,20.5
2022-12-16T01:30:44.455Z,20.5
2022-12-16T01:32:14.714Z,20.1
2022-12-16T01:33:44.796Z,20.4
2022-12-16T01:35:44.117Z,20.4
2022-12-16T01:36:45.113Z,20.4
2022-12-16T01:38:15.287Z,20.3
2022-12-16T01:39:45.442Z,20.4
2022-12-16T01:41:15.595Z,20.2
2022-12-16T01:42:45.772Z,20.4
2022-12-16T01:44:15.930Z,21.3
2022-12-16T01:45:46.138Z,20.3
2022-12-16T01:47:16.248Z,21.9
2022-12-16T01:48:46.490Z,20.3
2022-12-16T01:50:16.600Z,20.3
2022-12-16T01:51:52.153Z,20.3
2022-12-16T01:53:16.938Z,16.1
2022-12-16T01:54:47.090Z,20.8
2022-12-16T01:56:17.242Z,20.1
2022-12-16T01:57:47.399Z,20.3
2022-12-16T01:59:17.575Z,20.3
2022-12-16T02:00:47.749Z,20.3
2022-12-16T02:02:17.942Z,24.6
2022-12-16T02:03:48.051Z,20.3
2022-12-16T02:05:18.244Z,20.7
2022-12-16T02:06:48.376Z,20.3
2022-12-16T02:08:18.557Z,20.3
2022-12-16T02:09:48.719Z,20.8
2022-12-16T02:11:18.873Z,20.9
2022-12-16T02:12:49.026Z,20.4
2022-12-16T02:14:19.203Z,20.4
2022-12-16T02:15:49.359Z,20.2
2022-12-16T02:17:19.650Z,20.4
2022-12-16T02:18:49.688Z,20.3
2022-12-16T02:20:19.838Z,21
2022-12-16T02:21:50.021Z,20.3
2022-12-16T02:23:20.184Z,20.5
2022-12-16T02:24:50.345Z,20.6
2022-12-16T02:26:20.500Z,20.6
2022-12-16T02:27:50.653Z,20.3
2022-12-16T02:29:20.834Z,20.5
2022-12-16T02:30:51.048Z,20.5
2022-12-16T02:32:21.147Z,20.5
2022-12-16T02:33:51.325Z,20.7
2022-12-16T02:35:21.484Z,20.5
2022-12-16T02:36:51.662Z,20.7
2022-12-16T02:38:21.792Z,20.5
2022-12-16T02:39:52.034Z,20.5
2022-12-16T02:41:22.199Z,21
2022-12-16T02:42:52.348Z,20.5
2022-12-16T02:44:22.529Z,20.7
2022-12-16T02:45:52.733Z,20.5
2022-12-16T02:47:22.844Z,20.6
2022-12-16T02:48:53.045Z,20.5
2022-12-16T02:50:23.214Z,24.1
2022-12-16T02:51:53.359Z,20.4
2022-12-16T02:53:23.568Z,20.1
2022-12-16T02:54:53.696Z,20.4
2022-12-16T02:56:23.847Z,21.1
2022-12-16T02:57:54.000Z,20.4
2022-12-16T02:59:24.179Z,20.7
2022-12-16T03:00:54.366Z,21.3
2022-12-16T03:02:24.720Z,20.1
2022-12-16T03:03:54.648Z,21.4
2022-12-16T03:05:24.823Z,20.3
2022-12-16T03:06:54.976Z,20.7
2022-12-16T03:08:25.131Z,20.3
2022-12-16T03:09:55.346Z,20.3
2022-12-16T03:11:25.474Z,20.3
2022-12-16T03:12:55.626Z,20.2
2022-12-16T03:14:25.784Z,20.2
2022-12-16T03:15:55.968Z,20.2
2022-12-16T03:17:26.122Z,20.2
2022-12-16T03:18:56.278Z,20.2
2022-12-16T03:20:26.456Z,20.2
2022-12-16T03:21:56.607Z,20.5
2022-12-16T03:23:26.760Z,20.2
2022-12-16T03:24:56.936Z,19.9
2022-12-16T03:26:27.110Z,20.8
2022-12-16T03:27:57.238Z,19.9
2022-12-16T03:29:27.395Z,20.3
2022-12-16T03:30:57.622Z,20.3
2022-12-16T03:32:27.731Z,20.9
2022-12-16T03:33:57.881Z,21.7
2022-12-16T03:35:28.054Z,20.4
2022-12-16T03:36:58.209Z,20.9
2022-12-16T03:38:28.373Z,20.4
2022-12-16T03:39:58.550Z,20.4
2022-12-16T03:41:28.707Z,20
2022-12-16T03:42:58.895Z,20.5
2022-12-16T03:44:29.038Z,19.9
2022-12-16T03:45:59.328Z,20.5
2022-12-16T03:47:29.388Z,20.8
2022-12-16T03:48:59.542Z,20.7
2022-12-16T03:50:29.714Z,20.5
2022-12-16T03:51:59.866Z,20.5
2022-12-16T03:53:30.312Z,20.5
2022-12-16T03:55:00.181Z,20.5
2022-12-16T03:56:30.361Z,20.5
2022-12-16T03:58:00.515Z,20.5
2022-12-16T03:59:30.703Z,20.5
2022-12-16T04:01:00.856Z,20.5
2022-12-16T04:02:31.158Z,19
2022-12-16T04:04:01.215Z,20.4
2022-12-16T04:05:31.333Z,20.1
2022-12-16T04:07:01.501Z,20.9
2022-12-16T04:08:31.660Z,20.1
2022-12-16T04:10:01.815Z,20.4
2022-12-16T04:11:31.998Z,20.2
2022-12-16T04:13:02.159Z,20.3
2022-12-16T04:14:32.345Z,20
2022-12-16T04:16:02.566Z,20.3
2022-12-16T04:17:32.654Z,19.9
2022-12-16T04:19:02.900Z,20.3
2022-12-16T04:20:33.070Z,20
2022-12-16T04:22:03.222Z,20.7
2022-12-16T04:23:33.782Z,20.5
2022-12-16T04:25:03.534Z,20.2
2022-12-16T04:26:33.717Z,20.2
2022-12-16T04:28:03.879Z,19.7
2022-12-16T04:29:34.060Z,20.2
2022-12-16T04:31:04.271Z,20.2
2022-12-16T04:32:34.373Z,20.7
2022-12-16T04:34:04.535Z,20.2
2022-12-16T04:35:34.689Z,20.1
2022-12-16T04:37:04.875Z,20.1
2022-12-16T04:38:35.030Z,20.1
2022-12-16T04:40:05.183Z,20.2
2022-12-16T04:41:35.368Z,20.1
2022-12-16T04:43:05.531Z,19.7
2022-12-16T04:44:35.689Z,20.2
2022-12-16T04:46:05.942Z,20.2
2022-12-16T04:47:36.023Z,20.2
2022-12-16T04:49:06.184Z,20.2
2022-12-16T04:50:36.340Z,20.3
2022-12-16T04:52:06.514Z,20.3
2022-12-16T04:53:36.677Z,20.8
2022-12-16T04:55:06.827Z,20.4
2022-12-16T04:56:37.002Z,20.4
2022-12-16T04:58:07.153Z,20.1
2022-12-16T04:59:37.309Z,20.5
2022-12-16T05:01:07.540Z,20.2
2022-12-16T05:02:37.732Z,20.6
2022-12-16T05:04:07.835Z,25.2
2022-12-16T05:05:37.957Z,20.6
2022-12-16T05:07:08.136Z,20.9
2022-12-16T05:08:38.293Z,20.7
2022-12-16T05:10:08.443Z,20.9
2022-12-16T05:11:38.619Z,20.7
2022-12-16T05:13:08.802Z,21.2
2022-12-16T05:14:38.961Z,21.3
2022-12-16T05:16:09.193Z,20.4
2022-12-16T05:17:39.336Z,20.8
2022-12-16T05:19:09.471Z,21.7
2022-12-16T05:20:39.631Z,20.8
2022-12-16T05:22:09.806Z,20.9
2022-12-16T05:23:39.972Z,20.7
2022-12-16T05:25:10.129Z,20.8
2022-12-16T05:26:40.285Z,20.9
2022-12-16T05:28:10.459Z,20.8
2022-12-16T05:29:40.615Z,22
2022-12-16T05:31:10.833Z,20.8
2022-12-16T05:32:40.966Z,20.9
2022-12-16T05:34:11.101Z,21.1
2022-12-16T05:35:41.255Z,20.8
2022-12-16T05:37:11.412Z,21.3
2022-12-16T05:38:41.589Z,20.8
2022-12-16T05:40:11.753Z,20.8
2022-12-16T05:41:41.917Z,20.2
2022-12-16T05:43:16.629Z,21.2
2022-12-16T05:44:42.256Z,20.9
2022-12-16T05:46:12.516Z,20.8
2022-12-16T05:47:42.571Z,20.9
2022-12-16T05:49:12.918Z,22.8
2022-12-16T05:50:42.908Z,20.9
2022-12-16T05:52:13.068Z,20.8
2022-12-16T05:53:43.242Z,20.9
2022-12-16T05:55:13.402Z,20.9
2022-12-16T05:56:43.558Z,20.9
2022-12-16T05:58:13.736Z,21.4
2022-12-16T05:59:43.893Z,20.9
2022-12-16T06:01:14.043Z,21.2
2022-12-16T06:02:44.339Z,20.9
2022-12-16T06:04:17.637Z,20.9
2022-12-16T06:05:44.554Z,20.8
2022-12-16T06:07:14.680Z,20.9
2022-12-16T06:08:44.852Z,21
2022-12-16T06:10:15.009Z,21.5
2022-12-16T06:11:45.165Z,20.6
2022-12-16T06:13:15.320Z,21
2022-12-16T06:14:45.491Z,21.3
2022-12-16T06:16:15.692Z,21.6
2022-12-16T06:17:45.803Z,22.4
2022-12-16T06:19:15.984Z,21
2022-12-16T06:20:46.138Z,21
2022-12-16T06:22:16.315Z,21
2022-12-16T06:23:46.473Z,21
2022-12-16T06:25:16.627Z,20.9
2022-12-16T06:26:46.780Z,21
2022-12-16T06:28:16.937Z,21
2022-12-16T06:29:47.118Z,21
2022-12-16T06:31:17.292Z,25.2
2022-12-16T06:32:47.438Z,21
2022-12-16T06:34:17.613Z,21
2022-12-16T06:35:47.774Z,21.6
2022-12-16T06:37:18.019Z,21
2022-12-16T06:38:48.121Z,21
2022-12-16T06:40:18.276Z,20.7
2022-12-16T06:41:48.428Z,21.4
2022-12-16T06:43:18.586Z,21
2022-12-16T06:44:48.770Z,21
2022-12-16T06:46:18.964Z,21
2022-12-16T06:47:49.085Z,21
2022-12-16T06:49:19.273Z,21.1
2022-12-16T06:50:52.430Z,21.8
2022-12-16T06:52:19.574Z,21.1
2022-12-16T06:53:49.729Z,21.2
2022-12-16T06:55:19.960Z,18.2
2022-12-16T06:56:50.269Z,22
2022-12-16T06:58:20.581Z,21.2
2022-12-16T06:59:50.784Z,23.5
2022-12-16T07:01:21.034Z,21.7
2022-12-16T07:02:51.193Z,21.2
2022-12-16T07:04:21.288Z,21.2
2022-12-16T07:05:51.445Z,21.2
2022-12-16T07:07:21.604Z,21.6
2022-12-16T07:08:51.782Z,21.1
2022-12-16T07:10:21.951Z,21.1
2022-12-16T07:11:52.157Z,21
2022-12-16T07:13:22.263Z,21.5
2022-12-16T07:14:52.441Z,21.1
2022-12-16T07:17:57.784Z,21.1
2022-12-16T07:19:27.959Z,21.6
2022-12-16T07:20:58.111Z,21.7
2022-12-16T07:22:28.267Z,21.5
2022-12-16T07:23:58.453Z,21.1
2022-12-16T07:25:28.613Z,22.9
2022-12-16T07:26:58.794Z,21.2
2022-12-16T07:28:28.916Z,23.7
2022-12-16T07:29:59.095Z,21.2
2022-12-16T07:31:29.264Z,24.3
2022-12-16T07:32:59.400Z,21.2
2022-12-16T07:34:29.586Z,23
2022-12-16T07:35:59.741Z,20.8
2022-12-16T07:37:29.934Z,21.3
2022-12-16T07:39:00.123Z,21.2
2022-12-16T07:40:30.271Z,21.7
2022-12-16T07:42:00.441Z,21.2
2022-12-16T07:43:31.034Z,19.9
2022-12-16T07:45:00.766Z,21.3
2022-12-16T07:46:31.018Z,24.5
2022-12-16T07:48:01.094Z,21.6
2022-12-16T07:49:31.280Z,21.8
2022-12-16T07:51:01.455Z,22
2022-12-16T07:52:31.611Z,22
2022-12-16T07:54:01.764Z,22
2022-12-16T07:55:31.952Z,21.9
2022-12-16T07:57:02.117Z,21.9
2022-12-16T07:58:32.268Z,22
2022-12-16T08:00:02.491Z,22
2022-12-16T08:01:32.747Z,22
2022-12-16T08:03:02.964Z,22.4
2022-12-16T08:04:32.955Z,22.1
2022-12-16T08:06:03.112Z,22.7
2022-12-16T08:07:33.273Z,22.1
2022-12-16T08:09:03.430Z,24.6
2022-12-16T08:10:33.719Z,22.1
2022-12-16T08:12:03.872Z,22.6
2022-12-16T08:13:34.432Z,22
2022-12-16T08:15:04.246Z,23
2022-12-16T08:16:34.423Z,22.1
2022-12-16T08:18:04.538Z,19.9
2022-12-16T08:19:34.697Z,21.9
2022-12-16T08:21:04.895Z,22.3
2022-12-16T08:22:35.053Z,21.7
2022-12-16T08:24:05.205Z,21.6
2022-12-16T08:25:35.388Z,21.6
2022-12-16T08:27:05.551Z,22
2022-12-16T08:28:35.705Z,21.7
2022-12-16T08:30:05.877Z,21.7
2022-12-16T08:31:36.118Z,21.7
2022-12-16T08:33:15.226Z,21.8
2022-12-16T08:34:36.363Z,21.8
2022-12-16T08:36:06.553Z,21.8
2022-12-16T08:37:36.697Z,22.3
2022-12-16T08:39:06.858Z,21.6
2022-12-16T08:40:37.286Z,21.9
2022-12-16T08:42:07.244Z,21.2
2022-12-16T08:43:37.542Z,21.9
2022-12-16T08:45:07.638Z,20.2
2022-12-16T08:46:37.804Z,23.8
2022-12-16T08:48:07.987Z,22
2022-12-16T08:49:38.123Z,22
2022-12-16T08:51:08.300Z,22.1
2022-12-16T08:52:38.587Z,22.1
2022-12-16T08:54:08.822Z,22.1
2022-12-16T08:55:39.004Z,22.1
2022-12-16T08:57:09.168Z,24
2022-12-16T08:58:39.447Z,24.3
2022-12-16T09:00:09.708Z,22
2022-12-16T09:01:40.007Z,22.1
2022-12-16T09:03:10.328Z,22.7
2022-12-16T09:04:40.267Z,22.2
2022-12-16T09:06:10.613Z,22.2
2022-12-16T09:07:40.985Z,22
2022-12-16T09:09:11.337Z,22.1
2022-12-16T09:10:41.681Z,22
2022-12-16T09:12:11.969Z,22
2022-12-16T09:13:42.253Z,22
2022-12-16T09:15:12.556Z,21.6
2022-12-16T09:16:43.005Z,22.6
2022-12-16T09:18:13.453Z,22
2022-12-16T09:19:43.426Z,22
2022-12-16T09:21:13.744Z,22
2022-12-16T09:22:44.052Z,22
2022-12-16T09:24:14.346Z,22.6
2022-12-16T09:25:45.740Z,22
2022-12-16T09:27:16.145Z,22
2022-12-16T09:28:46.436Z,22.1
2022-12-16T09:30:16.719Z,22.6
2022-12-16T09:31:47.054Z,22
2022-12-16T09:33:17.304Z,22
2022-12-16T09:34:47.432Z,22
2022-12-16T09:36:17.611Z,21.6
2022-12-16T09:37:47.770Z,22
2022-12-16T09:39:17.923Z,22.8
2022-12-16T09:40:48.109Z,22.1
2022-12-16T09:42:18.379Z,22.1
2022-12-16T09:43:48.438Z,22.1
2022-12-16T09:45:18.609Z,21.1
2022-12-16T09:46:48.916Z,22.1
2022-12-16T09:48:18.959Z,22.8
2022-12-16T09:49:49.148Z,22.1
2022-12-16T09:51:19.306Z,22.1
2022-12-16T09:52:49.483Z,22
2022-12-16T09:54:19.642Z,22.1
2022-12-16T09:55:49.811Z,22.1
2022-12-16T09:57:19.984Z,22.3
2022-12-16T09:58:50.151Z,23.1
2022-12-16T10:00:20.306Z,22
2022-12-16T10:01:50.658Z,21.4
2022-12-16T10:03:20.956Z,22.3
2022-12-16T10:04:50.846Z,22.2
2022-12-16T10:06:21.110Z,24
2022-12-16T10:07:51.210Z,22.2
2022-12-16T10:09:21.368Z,22.2
2022-12-16T10:10:51.525Z,22.2
2022-12-16T10:12:21.714Z,21.5
2022-12-16T10:13:51.869Z,22.2
2022-12-16T10:15:22.041Z,22.2
2022-12-16T10:16:52.236Z,23
2022-12-16T10:18:22.455Z,22.3
2022-12-16T10:19:52.552Z,21.9
2022-12-16T10:21:22.746Z,22.2
2022-12-16T10:22:52.959Z,21.7
2022-12-16T10:24:23.096Z,22.4
2022-12-16T10:25:53.272Z,22.3
2022-12-16T10:27:23.463Z,21.4
2022-12-16T10:28:53.622Z,22.4
2022-12-16T10:30:23.780Z,22.4
2022-12-16T10:31:54.012Z,23
2022-12-16T10:33:24.152Z,22.4
2022-12-16T10:34:54.354Z,21.7
2022-12-16T10:36:24.525Z,22.9
2022-12-16T10:37:54.710Z,22.5
2022-12-16T10:39:24.937Z,21.3
2022-12-16T10:40:55.045Z,22.5
2022-12-16T10:42:25.365Z,22.5
2022-12-16T10:43:55.577Z,23.2
2022-12-16T10:45:25.740Z,22.6
2022-12-16T10:46:55.952Z,22.6
2022-12-16T10:48:26.085Z,22.6
2022-12-16T10:49:56.267Z,23.4
2022-12-16T10:51:26.393Z,22.6
2022-12-16T10:52:56.573Z,22.9
2022-12-16T10:54:26.749Z,22.6
2022-12-16T10:55:56.934Z,21.9
2022-12-16T10:57:27.087Z,22.6
2022-12-16T10:58:57.242Z,23.3
2022-12-16T11:00:27.394Z,22.6
2022-12-16T11:01:57.660Z,25.3
2022-12-16T11:03:27.881Z,22.6
2022-12-16T11:04:57.887Z,22.6
2022-12-16T11:06:28.040Z,22.6
2022-12-16T11:07:58.264Z,22.6
2022-12-16T11:09:28.453Z,22.7
2022-12-16T11:10:58.607Z,22.6
2022-12-16T11:12:28.846Z,21.3
2022-12-16T11:13:58.980Z,22.6
2022-12-16T11:15:29.864Z,22.6
2022-12-16T11:16:59.295Z,22.6
2022-12-16T11:18:29.478Z,22.6
2022-12-16T11:19:59.631Z,24.3
2022-12-16T11:21:32.551Z,22.4
2022-12-16T11:23:06.355Z,22.3
2022-12-16T11:24:37.277Z,22.2
2022-12-16T11:26:08.093Z,22.6
2022-12-16T11:27:41.968Z,21.9
2022-12-16T11:29:44.100Z,22.4
2022-12-16T11:31:14.382Z,23.2
2022-12-16T11:32:44.431Z,22.2
2022-12-16T11:34:14.579Z,22.2
2022-12-16T11:35:44.733Z,22.5
2022-12-16T11:37:18.141Z,22.1
2022-12-16T11:38:45.072Z,21.3
2022-12-16T11:40:15.227Z,22.1
2022-12-16T11:41:45.383Z,22.1
2022-12-16T11:43:17.200Z,22.1
2022-12-16T11:44:45.722Z,22.1
2022-12-16T11:46:15.930Z,22.1
2022-12-16T11:47:46.033Z,21.2
2022-12-16T11:49:19.332Z,22.1
2022-12-16T11:50:46.384Z,23.1
2022-12-16T11:52:37.403Z,22.1
2022-12-16T11:53:46.755Z,22.1
2022-12-16T11:55:16.957Z,23.7
2022-12-16T11:56:47.130Z,22.1
2022-12-16T11:58:17.252Z,22.8
2022-12-16T11:59:47.440Z,22.3
2022-12-16T12:01:17.575Z,21.1
2022-12-16T12:02:47.776Z,22.5
2022-12-16T12:04:17.981Z,22.6
2022-12-16T12:05:48.091Z,22.7
2022-12-16T12:07:18.243Z,22.8
2022-12-16T12:08:48.431Z,23
2022-12-16T12:10:18.590Z,23.4
2022-12-16T12:11:48.745Z,23.1
2022-12-16T12:13:18.898Z,23.1
2022-12-16T12:14:49.076Z,23.1
2022-12-16T12:16:19.300Z,25.3
2022-12-16T12:17:49.388Z,23
2022-12-16T12:19:19.588Z,24.4
2022-12-16T12:20:49.778Z,23
2022-12-16T12:22:19.938Z,23
2022-12-16T12:23:50.136Z,22.2
2022-12-16T12:25:20.292Z,22.9
2022-12-16T12:26:50.447Z,22.9
2022-12-16T12:28:20.608Z,22.8
2022-12-16T12:29:50.789Z,22.9
2022-12-16T12:31:21.004Z,22.8
2022-12-16T12:32:51.128Z,22.8
2022-12-16T12:34:21.295Z,23
2022-12-16T12:35:51.451Z,23
2022-12-16T12:37:21.605Z,24.3
2022-12-16T12:38:51.785Z,23.3
2022-12-16T12:40:21.956Z,25.4
2022-12-16T12:41:52.115Z,23.5
2022-12-16T12:43:22.275Z,24.2
2022-12-16T12:44:52.449Z,23.5
2022-12-16T12:46:22.633Z,23.8
2022-12-16T12:47:52.757Z,23.4
2022-12-16T12:49:22.969Z,23.4
2022-12-16T12:50:53.280Z,23.5
2022-12-16T12:52:23.441Z,23.4
2022-12-16T12:53:53.596Z,23.4
2022-12-16T12:55:23.775Z,23.4
2022-12-16T12:56:53.926Z,24
2022-12-16T12:58:24.092Z,23.4
2022-12-16T12:59:58.588Z,22.2
2022-12-16T13:01:24.623Z,23.5
2022-12-16T13:02:54.709Z,23.3
2022-12-16T13:04:24.787Z,23.3
2022-12-16T13:05:54.968Z,22.6
2022-12-16T13:07:25.097Z,23.3
2022-12-16T13:08:55.251Z,23.3
2022-12-16T13:10:25.429Z,23.3
2022-12-16T13:11:55.579Z,24.5
2022-12-16T13:13:25.732Z,23.3
2022-12-16T13:14:55.911Z,23.3
2022-12-16T13:16:26.177Z,23.3
2022-12-16T13:17:56.267Z,22.3
2022-12-16T13:19:26.429Z,24.9
2022-12-16T13:20:56.717Z,23.2
2022-12-16T13:22:26.799Z,23.2
2022-12-16T13:23:56.924Z,23.2
2022-12-16T13:25:27.098Z,22.7
2022-12-16T13:26:57.258Z,23.2
2022-12-16T13:28:27.412Z,24.2
2022-12-16T13:29:57.599Z,23.1
2022-12-16T13:31:27.810Z,24.2
2022-12-16T13:32:57.913Z,23.1
2022-12-16T13:34:28.070Z,23.1
2022-12-16T13:35:58.251Z,23
2022-12-16T13:37:33.714Z,23.2
2022-12-16T13:38:58.584Z,23
2022-12-16T13:40:28.739Z,23
2022-12-16T13:41:58.906Z,24.1
2022-12-16T13:43:29.064Z,23.4
2022-12-16T13:44:59.214Z,22.9
2022-12-16T13:46:29.394Z,22.9
2022-12-16T13:47:59.555Z,22.1
2022-12-16T13:49:29.709Z,22.9
2022-12-16T13:50:59.888Z,22.9
2022-12-16T13:52:30.048Z,22.9
2022-12-16T13:54:00.202Z,22.9
2022-12-16T13:55:30.404Z,22.8
2022-12-16T13:57:00.531Z,22
2022-12-16T13:58:30.685Z,22.7
2022-12-16T14:00:00.841Z,21.9
2022-12-16T14:01:31.144Z,22.7
2022-12-16T14:03:01.270Z,23.5
2022-12-16T14:04:31.327Z,22.7
2022-12-16T14:06:01.503Z,23.7
2022-12-16T14:07:31.657Z,23.1
2022-12-16T14:09:01.810Z,23.7
2022-12-16T14:10:31.970Z,22.8
2022-12-16T14:12:02.175Z,22.8
2022-12-16T14:13:32.557Z,22.8
2022-12-16T14:15:02.458Z,22.8
2022-12-16T14:16:32.714Z,22.8
2022-12-16T14:18:02.808Z,22.8
2022-12-16T14:19:32.960Z,22.9
2022-12-16T14:21:03.144Z,22.9
2022-12-16T14:22:33.300Z,22.9
2022-12-16T14:24:03.719Z,23
2022-12-16T14:25:33.614Z,23
2022-12-16T14:27:03.784Z,23
2022-12-16T14:28:33.971Z,22
2022-12-16T14:30:04.101Z,23
2022-12-16T14:31:34.313Z,22.8
2022-12-16T14:33:04.431Z,23.1
2022-12-16T14:34:34.588Z,23
2022-12-16T14:36:04.753Z,22.9
2022-12-16T14:37:34.933Z,23.5
2022-12-16T14:39:05.107Z,22.8
2022-12-16T14:40:35.269Z,22.5
2022-12-16T14:42:05.453Z,22.6
2022-12-16T14:43:36.012Z,22.8
2022-12-16T14:45:05.763Z,21.7
2022-12-16T14:46:35.942Z,22.4
2022-12-16T14:48:06.095Z,22.4
2022-12-16T14:49:39.006Z,22.4
2022-12-16T14:51:09.161Z,22.6
2022-12-16T14:52:39.336Z,20.8
2022-12-16T14:54:09.494Z,22.2
2022-12-16T14:55:39.647Z,21.7
2022-12-16T14:57:09.832Z,22.2
2022-12-16T14:58:40.013Z,23.1
2022-12-16T15:00:10.144Z,22.1
2022-12-16T15:01:40.500Z,22.9
2022-12-16T15:03:10.715Z,22.1
2022-12-16T15:04:40.873Z,22.1
2022-12-16T15:06:10.791Z,22.1
2022-12-16T15:07:40.968Z,23.3
2022-12-16T15:09:11.140Z,24.1
2022-12-16T15:10:41.304Z,22.2
2022-12-16T15:12:11.491Z,22.1
2022-12-16T15:13:41.647Z,23.2
2022-12-16T15:15:11.842Z,22
2022-12-16T15:16:42.053Z,21.2
2022-12-16T15:18:12.144Z,22
2022-12-16T15:19:42.301Z,22.8
2022-12-16T15:21:12.464Z,22
2022-12-16T15:22:42.689Z,20.2
2022-12-16T15:24:12.846Z,22.1
2022-12-16T15:25:42.995Z,22.1
2022-12-16T15:27:13.152Z,22.9
2022-12-16T15:28:43.332Z,22.1
2022-12-16T15:30:13.504Z,22.2
2022-12-16T15:31:43.673Z,22.1
2022-12-16T15:33:13.841Z,23.1
2022-12-16T15:34:43.999Z,22.1
2022-12-16T15:36:14.149Z,21.2
2022-12-16T15:37:44.324Z,22.1
2022-12-16T15:39:14.486Z,22
2022-12-16T15:40:44.650Z,22.1
2022-12-16T15:42:14.804Z,23
2022-12-16T15:43:44.978Z,22.2
2022-12-16T15:45:15.131Z,22.2
2022-12-16T15:46:45.386Z,22.1
2022-12-16T15:48:15.551Z,22.1
2022-12-16T15:49:45.627Z,22.2
2022-12-16T15:51:15.781Z,22.4
2022-12-16T15:52:45.933Z,22.2
2022-12-16T15:54:16.144Z,22.1
2022-12-16T15:55:46.283Z,21
2022-12-16T15:57:16.434Z,22.1
2022-12-16T15:58:46.617Z,22.1
2022-12-16T16:00:16.776Z,22.1
2022-12-16T16:01:47.130Z,22.1
2022-12-16T16:03:17.287Z,22
2022-12-16T16:04:47.431Z,21.9
2022-12-16T16:06:17.616Z,21.9
2022-12-16T16:07:47.767Z,21.8
2022-12-16T16:09:17.949Z,22
2022-12-16T16:10:48.106Z,23.2
2022-12-16T16:12:18.260Z,21.9
2022-12-16T16:13:48.444Z,22.4
2022-12-16T16:15:18.586Z,21.9
2022-12-16T16:16:48.748Z,22.6
2022-12-16T16:18:18.929Z,21.5
2022-12-16T16:19:49.077Z,21.8
2022-12-16T16:21:19.228Z,22.2
2022-12-16T16:22:49.381Z,21.8
2022-12-16T16:24:19.622Z,21.7
2022-12-16T16:25:49.717Z,21.8
2022-12-16T16:27:19.874Z,21.7
2022-12-16T16:28:50.055Z,21.6
2022-12-16T16:30:20.213Z,20.9
2022-12-16T16:31:50.371Z,21.6
2022-12-16T16:33:20.537Z,21.5
2022-12-16T16:34:50.736Z,21.5
2022-12-16T16:36:20.868Z,20.7
2022-12-16T16:37:51.028Z,21.5
2022-12-16T16:39:21.207Z,21.2
2022-12-16T16:40:51.362Z,21.4
2022-12-16T16:42:21.517Z,21.5
2022-12-16T16:43:51.698Z,21.4
2022-12-16T16:45:21.860Z,20
2022-12-16T16:46:52.072Z,21.3
2022-12-16T16:48:22.181Z,21.4
2022-12-16T16:49:52.360Z,21.3
2022-12-16T16:51:22.536Z,20.5
2022-12-16T16:52:52.670Z,21.3
2022-12-16T16:54:22.853Z,20.5
2022-12-16T16:55:53.014Z,21.3
2022-12-16T16:57:23.167Z,21.3
2022-12-16T16:58:53.320Z,21.3
2022-12-16T17:00:23.546Z,20.3
2022-12-16T17:01:53.763Z,21.6
2022-12-16T17:03:24.055Z,21.3
2022-12-16T17:04:54.008Z,21.3
2022-12-16T17:06:24.166Z,20.7
2022-12-16T17:07:54.412Z,21.3
2022-12-16T17:09:24.507Z,21.3
2022-12-16T17:10:54.664Z,21.7
2022-12-16T17:12:24.908Z,21.3
2022-12-16T17:13:55.071Z,21.3
2022-12-16T17:15:25.248Z,22.1
2022-12-16T17:16:55.410Z,21.4
2022-12-16T17:18:25.567Z,20.6
2022-12-16T17:19:55.746Z,21.4
2022-12-16T17:21:25.901Z,22.2
2022-12-16T17:22:56.082Z,21.5
2022-12-16T17:24:26.216Z,22.8
2022-12-16T17:25:56.396Z,21.5
2022-12-16T17:27:26.552Z,21.5
2022-12-16T17:28:56.707Z,21.5
2022-12-16T17:30:26.890Z,22.5
2022-12-16T17:31:57.107Z,21.5
2022-12-16T17:33:27.205Z,20.2
2022-12-16T17:34:57.400Z,21.5
2022-12-16T17:36:31.701Z,23.9
2022-12-16T17:37:57.722Z,21.5
2022-12-16T17:39:27.930Z,21.3
2022-12-16T17:40:58.053Z,21.5
2022-12-16T17:42:28.209Z,22.3
2022-12-16T17:43:58.364Z,21.5
2022-12-16T17:45:28.540Z,21.5
2022-12-16T17:46:58.738Z,21.6
2022-12-16T17:48:28.857Z,21.4
2022-12-16T17:49:59.148Z,21.1
2022-12-16T17:51:29.205Z,20.8
2022-12-16T17:52:59.362Z,21.3
2022-12-16T17:54:29.825Z,20.4
2022-12-16T17:55:59.695Z,21.3
2022-12-16T17:57:29.846Z,22.2
2022-12-16T17:58:59.998Z,21.3
2022-12-16T18:00:30.175Z,21.3
2022-12-16T18:02:00.459Z,21.6
2022-12-16T18:03:30.663Z,22.2
2022-12-16T18:05:00.649Z,21.3
2022-12-16T18:06:30.833Z,21.2
2022-12-16T18:08:00.983Z,21.5
2022-12-16T18:09:31.139Z,21.2
2022-12-16T18:11:01.338Z,21.2
2022-12-16T18:12:31.475Z,21.5
2022-12-16T18:14:01.629Z,21.2
2022-12-16T18:15:31.827Z,21.1
2022-12-16T18:17:01.978Z,20.6
2022-12-16T18:18:32.130Z,21.1
2022-12-16T18:20:02.287Z,21.1
2022-12-16T18:21:32.471Z,21.1
2022-12-16T18:23:02.633Z,21.4
2022-12-16T18:24:32.779Z,21.1
2022-12-16T18:26:02.957Z,21.1
2022-12-16T18:27:33.141Z,21.4
2022-12-16T18:29:03.261Z,21.1
2022-12-16T18:30:33.422Z,21.1
2022-12-16T18:32:03.683Z,21.9
2022-12-16T18:33:34.153Z,21.2
2022-12-16T18:35:03.928Z,19.5
2022-12-16T18:36:34.103Z,21.2
2022-12-16T18:38:04.256Z,21.9
2022-12-16T18:39:34.410Z,21.2
2022-12-16T18:41:04.595Z,21.7
2022-12-16T18:42:34.752Z,21.3
2022-12-16T18:44:05.011Z,20.6
2022-12-16T18:45:35.100Z,21.3
2022-12-16T18:47:05.238Z,23.4
2022-12-16T18:48:35.402Z,21.3
2022-12-16T18:50:05.561Z,21.9
2022-12-16T18:51:35.742Z,21.3
2022-12-16T18:53:05.904Z,21.1
2022-12-16T18:54:36.066Z,21.3
2022-12-16T18:56:06.247Z,20.1
2022-12-16T18:57:39.572Z,21.6
2022-12-16T18:59:06.570Z,21.2
2022-12-16T19:00:36.874Z,21.2
2022-12-16T19:02:07.009Z,20.9
2022-12-16T19:03:37.063Z,21.3
2022-12-16T19:05:07.222Z,20.6
2022-12-16T19:06:37.397Z,21.2
2022-12-16T19:08:11.177Z,21.4
2022-12-16T19:09:37.710Z,21.2
2022-12-16T19:11:07.897Z,21.2
2022-12-16T19:12:38.048Z,21.2
2022-12-16T19:14:08.219Z,20.5
2022-12-16T19:15:41.395Z,21.2
2022-12-16T19:17:08.583Z,20.1
2022-12-16T19:18:38.714Z,21.1
2022-12-16T19:20:08.865Z,20.9
2022-12-16T19:21:39.043Z,21.1
2022-12-16T19:23:09.194Z,22
2022-12-16T19:24:39.348Z,21.1
2022-12-16T19:26:09.503Z,22.1
2022-12-16T19:27:39.689Z,21.1
2022-12-16T19:29:09.849Z,21.1
2022-12-16T19:30:39.997Z,21.1
2022-12-16T19:32:10.253Z,21.1
2022-12-16T19:33:40.357Z,21.1
2022-12-16T19:35:10.492Z,21.2
2022-12-16T19:36:45.269Z,21.2
2022-12-16T19:38:10.843Z,21.5
2022-12-16T19:39:41.007Z,21.1
2022-12-16T19:41:11.148Z,22
2022-12-16T19:42:41.328Z,21.2
2022-12-16T19:44:11.494Z,21.2
2022-12-16T19:45:41.685Z,21.2
2022-12-16T19:47:11.822Z,22.7
2022-12-16T19:48:41.983Z,21.6
2022-12-16T19:50:12.163Z,22.7
2022-12-16T19:51:42.329Z,21.2
2022-12-16T19:53:12.487Z,21.7
2022-12-16T19:54:42.642Z,21.3
2022-12-16T19:56:12.805Z,22.3
2022-12-16T19:57:43.011Z,21.2
2022-12-16T19:59:13.155Z,21.2
2022-12-16T20:00:43.321Z,21.2
2022-12-16T20:02:13.668Z,22
2022-12-16T20:03:44.172Z,21.3
2022-12-16T20:05:13.852Z,21.2
2022-12-16T20:06:43.994Z,21.2
2022-12-16T20:08:14.173Z,20.9
2022-12-16T20:09:44.325Z,21.2
2022-12-16T20:11:14.479Z,21.2